sensor_id;sensor_type;location;lat;lon;timestamp;P1;durP1;ratioP1;P2;durP2;ratioP2
10275;SDS011;5183;51.190;6.820;2022-07-18T00:01:54;4.77;;;2.40;;
10275;SDS011;5183;51.190;6.820;2022-07-18T00:04:21;3.03;;;2.00;;
10275;SDS011;5183;51.190;6.820;2022-07-18T00:06:48;5.33;;;2.33;;
10275;SDS011;5183;51.190;6.820;2022-07-18T00:09:15;4.67;;;2.40;;
10275;SDS011;5183;51.190;6.820;2022-07-18T00:11:42;4.70;;;2.40;;
10275;SDS011;5183;51.190;6.820;2022-07-18T00:14:09;4.87;;;2.30;;
10275;SDS011;5183;51.190;6.820;2022-07-18T00:16:38;3.60;;;2.10;;
10275;SDS011;5183;51.190;6.820;2022-07-18T00:19:05;3.43;;;2.33;;
10275;SDS011;5183;51.190;6.820;2022-07-18T00:21:32;3.80;;;2.10;;
10275;SDS011;5183;51.190;6.820;2022-07-18T00:23:59;5.40;;;2.40;;
10275;SDS011;5183;51.190;6.820;2022-07-18T00:26:26;3.43;;;2.20;;
10275;SDS011;5183;51.190;6.820;2022-07-18T00:28:52;3.83;;;1.90;;
10275;SDS011;5183;51.190;6.820;2022-07-18T00:31:19;4.03;;;2.40;;
10275;SDS011;5183;51.190;6.820;2022-07-18T00:33:48;3.60;;;2.10;;
10275;SDS011;5183;51.190;6.820;2022-07-18T00:36:14;3.57;;;2.20;;
10275;SDS011;5183;51.190;6.820;2022-07-18T00:38:41;4.67;;;2.37;;
10275;SDS011;5183;51.190;6.820;2022-07-18T00:41:08;3.57;;;2.10;;
10275;SDS011;5183;51.190;6.820;2022-07-18T00:43:35;4.10;;;2.30;;
10275;SDS011;5183;51.190;6.820;2022-07-18T00:46:02;4.57;;;2.33;;
10275;SDS011;5183;51.190;6.820;2022-07-18T00:48:29;3.17;;;2.00;;
10275;SDS011;5183;51.190;6.820;2022-07-18T00:50:57;5.17;;;2.23;;
10275;SDS011;5183;51.190;6.820;2022-07-18T00:53:24;3.87;;;1.90;;
10275;SDS011;5183;51.190;6.820;2022-07-18T00:55:51;4.30;;;2.57;;
10275;SDS011;5183;51.190;6.820;2022-07-18T00:58:19;3.57;;;2.10;;
10275;SDS011;5183;51.190;6.820;2022-07-18T01:00:47;4.63;;;2.00;;
10275;SDS011;5183;51.190;6.820;2022-07-18T01:03:31;2.47;;;2.00;;
10275;SDS011;5183;51.190;6.820;2022-07-18T01:06:00;3.27;;;2.10;;
10275;SDS011;5183;51.190;6.820;2022-07-18T01:08:26;2.60;;;1.77;;
10275;SDS011;5183;51.190;6.820;2022-07-18T01:10:53;3.90;;;2.10;;
10275;SDS011;5183;51.190;6.820;2022-07-18T01:13:20;4.27;;;2.17;;
10275;SDS011;5183;51.190;6.820;2022-07-18T01:15:47;3.47;;;2.13;;
10275;SDS011;5183;51.190;6.820;2022-07-18T01:18:14;3.43;;;2.10;;
10275;SDS011;5183;51.190;6.820;2022-07-18T01:20:43;2.87;;;2.00;;
10275;SDS011;5183;51.190;6.820;2022-07-18T01:23:09;3.80;;;2.40;;
10275;SDS011;5183;51.190;6.820;2022-07-18T01:25:36;4.07;;;2.10;;
10275;SDS011;5183;51.190;6.820;2022-07-18T01:28:03;3.07;;;2.03;;
10275;SDS011;5183;51.190;6.820;2022-07-18T01:30:30;3.30;;;2.20;;
10275;SDS011;5183;51.190;6.820;2022-07-18T01:32:58;6.70;;;2.37;;
10275;SDS011;5183;51.190;6.820;2022-07-18T01:35:27;4.13;;;2.10;;
10275;SDS011;5183;51.190;6.820;2022-07-18T01:37:57;3.27;;;2.13;;
10275;SDS011;5183;51.190;6.820;2022-07-18T01:40:25;3.30;;;2.30;;
10275;SDS011;5183;51.190;6.820;2022-07-18T01:42:53;4.97;;;2.30;;
10275;SDS011;5183;51.190;6.820;2022-07-18T01:45:21;4.80;;;2.30;;
10275;SDS011;5183;51.190;6.820;2022-07-18T01:47:48;4.73;;;2.50;;
10275;SDS011;5183;51.190;6.820;2022-07-18T01:50:15;4.60;;;2.30;;
10275;SDS011;5183;51.190;6.820;2022-07-18T01:52:42;4.37;;;2.40;;
10275;SDS011;5183;51.190;6.820;2022-07-18T01:55:11;3.50;;;2.13;;
10275;SDS011;5183;51.190;6.820;2022-07-18T01:57:38;4.77;;;2.60;;
10275;SDS011;5183;51.190;6.820;2022-07-18T02:00:07;4.83;;;2.30;;
10275;SDS011;5183;51.190;6.820;2022-07-18T02:02:35;4.30;;;2.47;;
10275;SDS011;5183;51.190;6.820;2022-07-18T02:05:03;3.67;;;2.20;;
10275;SDS011;5183;51.190;6.820;2022-07-18T02:07:32;4.00;;;2.40;;
10275;SDS011;5183;51.190;6.820;2022-07-18T02:10:01;5.70;;;2.40;;
10275;SDS011;5183;51.190;6.820;2022-07-18T02:12:31;3.20;;;2.10;;
10275;SDS011;5183;51.190;6.820;2022-07-18T02:14:58;4.43;;;2.30;;
10275;SDS011;5183;51.190;6.820;2022-07-18T02:17:25;3.27;;;2.43;;
10275;SDS011;5183;51.190;6.820;2022-07-18T02:19:52;3.50;;;2.30;;
10275;SDS011;5183;51.190;6.820;2022-07-18T02:22:19;3.60;;;2.40;;
10275;SDS011;5183;51.190;6.820;2022-07-18T02:24:46;5.67;;;2.40;;
10275;SDS011;5183;51.190;6.820;2022-07-18T02:27:13;4.90;;;3.13;;
10275;SDS011;5183;51.190;6.820;2022-07-18T02:29:41;5.30;;;3.37;;
10275;SDS011;5183;51.190;6.820;2022-07-18T02:32:08;5.30;;;4.00;;
10275;SDS011;5183;51.190;6.820;2022-07-18T02:34:35;6.03;;;4.47;;
10275;SDS011;5183;51.190;6.820;2022-07-18T02:37:02;4.33;;;2.83;;
10275;SDS011;5183;51.190;6.820;2022-07-18T02:39:29;4.80;;;3.27;;
10275;SDS011;5183;51.190;6.820;2022-07-18T02:41:56;6.87;;;4.67;;
10275;SDS011;5183;51.190;6.820;2022-07-18T02:44:23;7.00;;;4.50;;
10275;SDS011;5183;51.190;6.820;2022-07-18T02:46:51;5.53;;;4.17;;
10275;SDS011;5183;51.190;6.820;2022-07-18T02:49:18;3.70;;;3.20;;
10275;SDS011;5183;51.190;6.820;2022-07-18T02:51:54;5.20;;;2.87;;
10275;SDS011;5183;51.190;6.820;2022-07-18T02:54:22;3.37;;;2.70;;
10275;SDS011;5183;51.190;6.820;2022-07-18T02:56:50;5.20;;;2.83;;
10275;SDS011;5183;51.190;6.820;2022-07-18T02:59:17;4.03;;;2.67;;
10275;SDS011;5183;51.190;6.820;2022-07-18T03:01:44;4.13;;;2.30;;
10275;SDS011;5183;51.190;6.820;2022-07-18T03:04:12;5.23;;;2.47;;
10275;SDS011;5183;51.190;6.820;2022-07-18T03:06:39;3.17;;;2.50;;
10275;SDS011;5183;51.190;6.820;2022-07-18T03:09:06;4.17;;;2.30;;
10275;SDS011;5183;51.190;6.820;2022-07-18T03:11:34;4.47;;;2.63;;
10275;SDS011;5183;51.190;6.820;2022-07-18T03:14:01;3.70;;;2.70;;
10275;SDS011;5183;51.190;6.820;2022-07-18T03:16:28;6.43;;;2.40;;
10275;SDS011;5183;51.190;6.820;2022-07-18T03:18:55;5.00;;;2.43;;
10275;SDS011;5183;51.190;6.820;2022-07-18T03:21:23;6.00;;;2.53;;
10275;SDS011;5183;51.190;6.820;2022-07-18T03:23:50;5.07;;;2.77;;
10275;SDS011;5183;51.190;6.820;2022-07-18T03:26:17;5.00;;;2.40;;
10275;SDS011;5183;51.190;6.820;2022-07-18T03:28:44;4.60;;;2.53;;
10275;SDS011;5183;51.190;6.820;2022-07-18T03:31:11;6.43;;;2.70;;
10275;SDS011;5183;51.190;6.820;2022-07-18T03:33:38;5.60;;;4.13;;
10275;SDS011;5183;51.190;6.820;2022-07-18T03:36:05;9.80;;;6.60;;
10275;SDS011;5183;51.190;6.820;2022-07-18T03:38:33;7.63;;;2.90;;
10275;SDS011;5183;51.190;6.820;2022-07-18T03:41:01;5.57;;;2.93;;
10275;SDS011;5183;51.190;6.820;2022-07-18T03:43:29;4.43;;;2.63;;
10275;SDS011;5183;51.190;6.820;2022-07-18T03:45:56;5.57;;;2.80;;
10275;SDS011;5183;51.190;6.820;2022-07-18T03:48:23;5.20;;;2.90;;
10275;SDS011;5183;51.190;6.820;2022-07-18T03:50:49;5.83;;;2.80;;
10275;SDS011;5183;51.190;6.820;2022-07-18T03:53:17;5.40;;;2.43;;
10275;SDS011;5183;51.190;6.820;2022-07-18T03:55:45;4.40;;;2.57;;
10275;SDS011;5183;51.190;6.820;2022-07-18T03:58:12;4.80;;;2.73;;
10275;SDS011;5183;51.190;6.820;2022-07-18T04:00:39;3.73;;;2.50;;
10275;SDS011;5183;51.190;6.820;2022-07-18T04:03:06;5.70;;;2.60;;
10275;SDS011;5183;51.190;6.820;2022-07-18T04:05:33;5.50;;;2.57;;
10275;SDS011;5183;51.190;6.820;2022-07-18T04:07:59;4.23;;;2.10;;
10275;SDS011;5183;51.190;6.820;2022-07-18T04:10:27;7.37;;;2.67;;
10275;SDS011;5183;51.190;6.820;2022-07-18T04:12:55;4.63;;;2.50;;
10275;SDS011;5183;51.190;6.820;2022-07-18T04:15:23;3.53;;;2.30;;
10275;SDS011;5183;51.190;6.820;2022-07-18T04:17:51;5.43;;;2.80;;
10275;SDS011;5183;51.190;6.820;2022-07-18T04:20:19;4.60;;;2.57;;
10275;SDS011;5183;51.190;6.820;2022-07-18T04:22:47;4.27;;;2.50;;
10275;SDS011;5183;51.190;6.820;2022-07-18T04:25:15;5.87;;;2.60;;
10275;SDS011;5183;51.190;6.820;2022-07-18T04:27:44;4.17;;;2.30;;
10275;SDS011;5183;51.190;6.820;2022-07-18T04:30:13;4.30;;;2.47;;
10275;SDS011;5183;51.190;6.820;2022-07-18T04:32:40;3.17;;;2.50;;
10275;SDS011;5183;51.190;6.820;2022-07-18T04:35:07;3.93;;;2.10;;
10275;SDS011;5183;51.190;6.820;2022-07-18T04:37:35;4.20;;;2.80;;
10275;SDS011;5183;51.190;6.820;2022-07-18T04:40:02;3.70;;;2.27;;
10275;SDS011;5183;51.190;6.820;2022-07-18T04:42:29;5.83;;;2.37;;
10275;SDS011;5183;51.190;6.820;2022-07-18T04:44:56;4.50;;;2.50;;
10275;SDS011;5183;51.190;6.820;2022-07-18T04:47:24;4.70;;;2.60;;
10275;SDS011;5183;51.190;6.820;2022-07-18T04:49:52;3.27;;;2.30;;
10275;SDS011;5183;51.190;6.820;2022-07-18T04:52:19;4.47;;;2.33;;
10275;SDS011;5183;51.190;6.820;2022-07-18T04:54:47;5.40;;;2.53;;
10275;SDS011;5183;51.190;6.820;2022-07-18T04:57:13;5.17;;;2.70;;
10275;SDS011;5183;51.190;6.820;2022-07-18T04:59:40;4.13;;;2.20;;
10275;SDS011;5183;51.190;6.820;2022-07-18T05:02:07;4.37;;;2.50;;
10275;SDS011;5183;51.190;6.820;2022-07-18T05:04:36;5.33;;;2.20;;
10275;SDS011;5183;51.190;6.820;2022-07-18T05:07:05;3.53;;;2.27;;
10275;SDS011;5183;51.190;6.820;2022-07-18T05:09:32;3.20;;;2.00;;
10275;SDS011;5183;51.190;6.820;2022-07-18T05:11:59;6.07;;;2.37;;
10275;SDS011;5183;51.190;6.820;2022-07-18T05:14:26;3.77;;;1.97;;
10275;SDS011;5183;51.190;6.820;2022-07-18T05:16:53;5.47;;;2.20;;
10275;SDS011;5183;51.190;6.820;2022-07-18T05:19:19;5.87;;;2.17;;
10275;SDS011;5183;51.190;6.820;2022-07-18T05:21:48;4.37;;;2.10;;
10275;SDS011;5183;51.190;6.820;2022-07-18T05:24:15;5.60;;;2.37;;
10275;SDS011;5183;51.190;6.820;2022-07-18T05:26:42;5.10;;;2.10;;
10275;SDS011;5183;51.190;6.820;2022-07-18T05:29:09;5.17;;;2.70;;
10275;SDS011;5183;51.190;6.820;2022-07-18T05:31:38;3.73;;;2.17;;
10275;SDS011;5183;51.190;6.820;2022-07-18T05:34:05;5.27;;;3.00;;
10275;SDS011;5183;51.190;6.820;2022-07-18T05:36:32;5.67;;;2.70;;
10275;SDS011;5183;51.190;6.820;2022-07-18T05:39:00;5.43;;;3.10;;
10275;SDS011;5183;51.190;6.820;2022-07-18T05:41:27;2.93;;;2.00;;
10275;SDS011;5183;51.190;6.820;2022-07-18T05:43:54;5.13;;;3.63;;
10275;SDS011;5183;51.190;6.820;2022-07-18T05:46:21;8.03;;;5.00;;
10275;SDS011;5183;51.190;6.820;2022-07-18T05:48:48;4.40;;;2.77;;
10275;SDS011;5183;51.190;6.820;2022-07-18T05:51:16;5.90;;;3.00;;
10275;SDS011;5183;51.190;6.820;2022-07-18T05:53:44;6.93;;;2.97;;
10275;SDS011;5183;51.190;6.820;2022-07-18T05:56:12;8.27;;;4.53;;
10275;SDS011;5183;51.190;6.820;2022-07-18T05:58:40;5.00;;;3.10;;
10275;SDS011;5183;51.190;6.820;2022-07-18T06:01:07;8.10;;;2.83;;
10275;SDS011;5183;51.190;6.820;2022-07-18T06:03:34;5.30;;;2.30;;
10275;SDS011;5183;51.190;6.820;2022-07-18T06:06:01;4.90;;;2.73;;
10275;SDS011;5183;51.190;6.820;2022-07-18T06:08:28;3.00;;;2.00;;
10275;SDS011;5183;51.190;6.820;2022-07-18T06:10:55;3.87;;;2.07;;
10275;SDS011;5183;51.190;6.820;2022-07-18T06:13:23;5.53;;;2.13;;
10275;SDS011;5183;51.190;6.820;2022-07-18T06:15:50;2.93;;;2.07;;
10275;SDS011;5183;51.190;6.820;2022-07-18T06:18:17;5.53;;;1.97;;
10275;SDS011;5183;51.190;6.820;2022-07-18T06:20:44;2.27;;;1.50;;
10275;SDS011;5183;51.190;6.820;2022-07-18T06:23:10;5.30;;;2.03;;
10275;SDS011;5183;51.190;6.820;2022-07-18T06:25:37;1.90;;;1.67;;
10275;SDS011;5183;51.190;6.820;2022-07-18T06:28:04;4.17;;;1.60;;
10275;SDS011;5183;51.190;6.820;2022-07-18T06:30:32;5.30;;;2.10;;
10275;SDS011;5183;51.190;6.820;2022-07-18T06:32:59;5.20;;;1.83;;
10275;SDS011;5183;51.190;6.820;2022-07-18T06:35:28;4.37;;;2.77;;
10275;SDS011;5183;51.190;6.820;2022-07-18T06:37:55;3.53;;;1.87;;
10275;SDS011;5183;51.190;6.820;2022-07-18T06:40:22;2.67;;;1.67;;
10275;SDS011;5183;51.190;6.820;2022-07-18T06:42:50;3.53;;;1.70;;
10275;SDS011;5183;51.190;6.820;2022-07-18T06:45:17;4.20;;;2.03;;
10275;SDS011;5183;51.190;6.820;2022-07-18T06:47:46;3.60;;;1.87;;
10275;SDS011;5183;51.190;6.820;2022-07-18T06:50:13;4.43;;;1.83;;
10275;SDS011;5183;51.190;6.820;2022-07-18T06:52:40;3.77;;;1.70;;
10275;SDS011;5183;51.190;6.820;2022-07-18T06:55:09;2.33;;;1.60;;
10275;SDS011;5183;51.190;6.820;2022-07-18T06:57:36;4.00;;;1.60;;
10275;SDS011;5183;51.190;6.820;2022-07-18T07:00:04;6.00;;;1.90;;
10275;SDS011;5183;51.190;6.820;2022-07-18T07:02:34;3.37;;;1.70;;
10275;SDS011;5183;51.190;6.820;2022-07-18T07:05:06;3.97;;;1.70;;
10275;SDS011;5183;51.190;6.820;2022-07-18T07:07:34;3.87;;;1.60;;
10275;SDS011;5183;51.190;6.820;2022-07-18T07:10:01;2.53;;;1.77;;
10275;SDS011;5183;51.190;6.820;2022-07-18T07:12:28;2.40;;;1.60;;
10275;SDS011;5183;51.190;6.820;2022-07-18T07:14:55;4.90;;;1.80;;
10275;SDS011;5183;51.190;6.820;2022-07-18T07:17:22;5.80;;;1.90;;
10275;SDS011;5183;51.190;6.820;2022-07-18T07:19:49;5.13;;;1.77;;
10275;SDS011;5183;51.190;6.820;2022-07-18T07:22:17;5.83;;;2.30;;
10275;SDS011;5183;51.190;6.820;2022-07-18T07:24:44;5.43;;;1.90;;
10275;SDS011;5183;51.190;6.820;2022-07-18T07:27:11;3.63;;;2.00;;
10275;SDS011;5183;51.190;6.820;2022-07-18T07:29:38;7.17;;;2.20;;
10275;SDS011;5183;51.190;6.820;2022-07-18T07:32:05;5.13;;;1.60;;
10275;SDS011;5183;51.190;6.820;2022-07-18T07:34:32;2.70;;;1.80;;
10275;SDS011;5183;51.190;6.820;2022-07-18T07:36:59;2.87;;;1.90;;
10275;SDS011;5183;51.190;6.820;2022-07-18T07:39:27;4.60;;;2.03;;
10275;SDS011;5183;51.190;6.820;2022-07-18T07:41:54;6.40;;;2.10;;
10275;SDS011;5183;51.190;6.820;2022-07-18T07:44:20;4.23;;;1.80;;
10275;SDS011;5183;51.190;6.820;2022-07-18T07:46:47;4.77;;;2.10;;
10275;SDS011;5183;51.190;6.820;2022-07-18T07:49:15;3.13;;;1.87;;
10275;SDS011;5183;51.190;6.820;2022-07-18T07:51:42;5.43;;;2.20;;
10275;SDS011;5183;51.190;6.820;2022-07-18T07:54:09;6.07;;;2.00;;
10275;SDS011;5183;51.190;6.820;2022-07-18T07:56:37;4.43;;;1.97;;
10275;SDS011;5183;51.190;6.820;2022-07-18T07:59:04;6.27;;;2.33;;
10275;SDS011;5183;51.190;6.820;2022-07-18T08:01:31;4.00;;;1.97;;
10275;SDS011;5183;51.190;6.820;2022-07-18T08:03:59;4.33;;;1.60;;
10275;SDS011;5183;51.190;6.820;2022-07-18T08:06:26;3.83;;;1.57;;
10275;SDS011;5183;51.190;6.820;2022-07-18T08:08:53;7.10;;;2.00;;
10275;SDS011;5183;51.190;6.820;2022-07-18T08:11:21;8.57;;;1.80;;
10275;SDS011;5183;51.190;6.820;2022-07-18T08:13:49;5.60;;;1.83;;
10275;SDS011;5183;51.190;6.820;2022-07-18T08:16:16;2.63;;;2.00;;
10275;SDS011;5183;51.190;6.820;2022-07-18T08:18:43;3.97;;;1.90;;
10275;SDS011;5183;51.190;6.820;2022-07-18T08:21:10;6.67;;;2.10;;
10275;SDS011;5183;51.190;6.820;2022-07-18T08:23:37;9.83;;;2.13;;
10275;SDS011;5183;51.190;6.820;2022-07-18T08:26:04;4.30;;;1.67;;
10275;SDS011;5183;51.190;6.820;2022-07-18T08:28:31;7.27;;;2.10;;
10275;SDS011;5183;51.190;6.820;2022-07-18T08:30:59;3.20;;;1.70;;
10275;SDS011;5183;51.190;6.820;2022-07-18T08:33:26;8.37;;;1.90;;
10275;SDS011;5183;51.190;6.820;2022-07-18T08:35:53;5.47;;;1.70;;
10275;SDS011;5183;51.190;6.820;2022-07-18T08:38:20;8.37;;;2.60;;
10275;SDS011;5183;51.190;6.820;2022-07-18T08:40:47;3.40;;;1.80;;
10275;SDS011;5183;51.190;6.820;2022-07-18T08:43:15;6.67;;;1.57;;
10275;SDS011;5183;51.190;6.820;2022-07-18T08:45:43;9.17;;;2.37;;
10275;SDS011;5183;51.190;6.820;2022-07-18T08:48:14;2.97;;;1.70;;
10275;SDS011;5183;51.190;6.820;2022-07-18T08:50:41;3.60;;;1.60;;
10275;SDS011;5183;51.190;6.820;2022-07-18T08:53:09;6.40;;;1.87;;
10275;SDS011;5183;51.190;6.820;2022-07-18T08:55:38;7.43;;;1.87;;
10275;SDS011;5183;51.190;6.820;2022-07-18T08:58:05;6.23;;;1.90;;
10275;SDS011;5183;51.190;6.820;2022-07-18T09:00:33;3.40;;;1.80;;
10275;SDS011;5183;51.190;6.820;2022-07-18T09:03:02;4.07;;;1.70;;
10275;SDS011;5183;51.190;6.820;2022-07-18T09:05:31;8.17;;;2.40;;
10275;SDS011;5183;51.190;6.820;2022-07-18T09:08:08;5.40;;;2.20;;
10275;SDS011;5183;51.190;6.820;2022-07-18T09:10:41;9.03;;;3.23;;
10275;SDS011;5183;51.190;6.820;2022-07-18T09:13:15;6.00;;;1.90;;
10275;SDS011;5183;51.190;6.820;2022-07-18T09:15:56;4.33;;;1.60;;
10275;SDS011;5183;51.190;6.820;2022-07-18T09:18:26;2.70;;;1.60;;
10275;SDS011;5183;51.190;6.820;2022-07-18T09:20:59;1.93;;;1.50;;
10275;SDS011;5183;51.190;6.820;2022-07-18T09:23:27;4.93;;;1.67;;
10275;SDS011;5183;51.190;6.820;2022-07-18T09:25:55;5.40;;;2.10;;
10275;SDS011;5183;51.190;6.820;2022-07-18T09:28:21;5.40;;;1.83;;
10275;SDS011;5183;51.190;6.820;2022-07-18T09:30:48;4.07;;;1.50;;
10275;SDS011;5183;51.190;6.820;2022-07-18T09:33:15;3.27;;;1.47;;
10275;SDS011;5183;51.190;6.820;2022-07-18T09:35:45;6.90;;;2.70;;
10275;SDS011;5183;51.190;6.820;2022-07-18T09:38:15;3.90;;;1.67;;
10275;SDS011;5183;51.190;6.820;2022-07-18T09:40:43;5.97;;;1.70;;
10275;SDS011;5183;51.190;6.820;2022-07-18T09:43:11;4.80;;;1.87;;
10275;SDS011;5183;51.190;6.820;2022-07-18T09:45:40;3.80;;;1.80;;
10275;SDS011;5183;51.190;6.820;2022-07-18T09:48:08;6.17;;;2.00;;
10275;SDS011;5183;51.190;6.820;2022-07-18T09:50:37;4.97;;;2.00;;
10275;SDS011;5183;51.190;6.820;2022-07-18T09:53:10;7.10;;;2.30;;
10275;SDS011;5183;51.190;6.820;2022-07-18T09:55:47;2.63;;;1.50;;
10275;SDS011;5183;51.190;6.820;2022-07-18T09:58:17;3.27;;;1.70;;
10275;SDS011;5183;51.190;6.820;2022-07-18T10:00:46;11.70;;;2.40;;
10275;SDS011;5183;51.190;6.820;2022-07-18T10:03:13;4.55;;;1.80;;
10275;SDS011;5183;51.190;6.820;2022-07-18T10:05:41;3.75;;;1.60;;
10275;SDS011;5183;51.190;6.820;2022-07-18T10:08:10;7.20;;;1.83;;
10275;SDS011;5183;51.190;6.820;2022-07-18T10:10:38;6.13;;;1.70;;
10275;SDS011;5183;51.190;6.820;2022-07-18T10:13:08;2.50;;;1.75;;
10275;SDS011;5183;51.190;6.820;2022-07-18T10:15:36;3.38;;;1.95;;
10275;SDS011;5183;51.190;6.820;2022-07-18T10:18:05;3.95;;;1.80;;
10275;SDS011;5183;51.190;6.820;2022-07-18T10:20:35;5.32;;;1.73;;
10275;SDS011;5183;51.190;6.820;2022-07-18T10:23:07;4.45;;;1.83;;
10275;SDS011;5183;51.190;6.820;2022-07-18T10:25:36;3.13;;;1.80;;
10275;SDS011;5183;51.190;6.820;2022-07-18T10:28:05;3.35;;;1.95;;
10275;SDS011;5183;51.190;6.820;2022-07-18T10:30:36;5.38;;;1.70;;
10275;SDS011;5183;51.190;6.820;2022-07-18T10:36:12;3.83;;;1.80;;
10275;SDS011;5183;51.190;6.820;2022-07-18T10:41:29;5.35;;;1.80;;
10275;SDS011;5183;51.190;6.820;2022-07-18T10:43:58;3.58;;;1.80;;
10275;SDS011;5183;51.190;6.820;2022-07-18T10:46:27;3.33;;;1.70;;
10275;SDS011;5183;51.190;6.820;2022-07-18T10:55:29;2.78;;;1.55;;
10275;SDS011;5183;51.190;6.820;2022-07-18T10:58:19;3.75;;;1.80;;
10275;SDS011;5183;51.190;6.820;2022-07-18T11:00:52;3.58;;;2.05;;
10275;SDS011;5183;51.190;6.820;2022-07-18T11:03:25;5.93;;;1.90;;
10275;SDS011;5183;51.190;6.820;2022-07-18T11:05:55;3.40;;;1.90;;
10275;SDS011;5183;51.190;6.820;2022-07-18T11:08:22;4.10;;;1.90;;
10275;SDS011;5183;51.190;6.820;2022-07-18T11:13:45;4.45;;;1.75;;
10275;SDS011;5183;51.190;6.820;2022-07-18T11:16:18;2.97;;;1.90;;
10275;SDS011;5183;51.190;6.820;2022-07-18T11:21:45;6.70;;;1.90;;
10275;SDS011;5183;51.190;6.820;2022-07-18T11:24:12;3.05;;;1.52;;
10275;SDS011;5183;51.190;6.820;2022-07-18T11:26:43;6.15;;;3.05;;
10275;SDS011;5183;51.190;6.820;2022-07-18T11:29:11;7.55;;;2.20;;
10275;SDS011;5183;51.190;6.820;2022-07-18T11:31:43;6.68;;;2.10;;
10275;SDS011;5183;51.190;6.820;2022-07-18T11:34:12;4.07;;;2.00;;
10275;SDS011;5183;51.190;6.820;2022-07-18T11:36:41;4.63;;;1.92;;
10275;SDS011;5183;51.190;6.820;2022-07-18T11:39:10;3.90;;;1.85;;
10275;SDS011;5183;51.190;6.820;2022-07-18T11:41:39;4.65;;;2.00;;
10275;SDS011;5183;51.190;6.820;2022-07-18T11:44:15;4.03;;;1.90;;
10275;SDS011;5183;51.190;6.820;2022-07-18T11:46:45;5.15;;;1.67;;
10275;SDS011;5183;51.190;6.820;2022-07-18T11:49:12;7.85;;;1.70;;
10275;SDS011;5183;51.190;6.820;2022-07-18T11:51:40;2.85;;;1.80;;
10275;SDS011;5183;51.190;6.820;2022-07-18T11:54:07;4.80;;;1.80;;
10275;SDS011;5183;51.190;6.820;2022-07-18T11:56:44;4.70;;;1.80;;
10275;SDS011;5183;51.190;6.820;2022-07-18T11:59:13;4.63;;;1.88;;
10275;SDS011;5183;51.190;6.820;2022-07-18T12:01:40;5.25;;;2.20;;
10275;SDS011;5183;51.190;6.820;2022-07-18T12:04:15;2.60;;;1.70;;
10275;SDS011;5183;51.190;6.820;2022-07-18T12:06:43;3.72;;;1.80;;
10275;SDS011;5183;51.190;6.820;2022-07-18T12:18:49;5.72;;;1.80;;
10275;SDS011;5183;51.190;6.820;2022-07-18T12:34:54;4.68;;;2.08;;
10275;SDS011;5183;51.190;6.820;2022-07-18T12:53:13;4.32;;;1.80;;
10275;SDS011;5183;51.190;6.820;2022-07-18T12:55:40;2.97;;;1.90;;
10275;SDS011;5183;51.190;6.820;2022-07-18T12:58:07;6.43;;;2.03;;
10275;SDS011;5183;51.190;6.820;2022-07-18T13:00:34;3.03;;;1.90;;
10275;SDS011;5183;51.190;6.820;2022-07-18T13:03:01;4.50;;;1.90;;
10275;SDS011;5183;51.190;6.820;2022-07-18T13:05:28;5.15;;;1.80;;
10275;SDS011;5183;51.190;6.820;2022-07-18T13:07:56;2.47;;;1.40;;
10275;SDS011;5183;51.190;6.820;2022-07-18T13:10:25;3.58;;;1.92;;
10275;SDS011;5183;51.190;6.820;2022-07-18T13:12:52;3.33;;;2.22;;
10275;SDS011;5183;51.190;6.820;2022-07-18T13:15:19;3.28;;;1.80;;
10275;SDS011;5183;51.190;6.820;2022-07-18T13:17:46;3.67;;;2.38;;
10275;SDS011;5183;51.190;6.820;2022-07-18T13:20:14;4.55;;;1.75;;
10275;SDS011;5183;51.190;6.820;2022-07-18T13:22:41;6.25;;;2.63;;
10275;SDS011;5183;51.190;6.820;2022-07-18T13:25:09;7.57;;;2.75;;
10275;SDS011;5183;51.190;6.820;2022-07-18T13:27:37;4.68;;;1.85;;
10275;SDS011;5183;51.190;6.820;2022-07-18T13:30:05;3.35;;;1.80;;
10275;SDS011;5183;51.190;6.820;2022-07-18T13:32:33;3.17;;;2.00;;
10275;SDS011;5183;51.190;6.820;2022-07-18T13:35:01;4.13;;;1.83;;
10275;SDS011;5183;51.190;6.820;2022-07-18T13:37:28;5.45;;;2.05;;
10275;SDS011;5183;51.190;6.820;2022-07-18T13:39:55;5.47;;;1.90;;
10275;SDS011;5183;51.190;6.820;2022-07-18T13:42:22;5.25;;;1.90;;
10275;SDS011;5183;51.190;6.820;2022-07-18T13:44:50;11.52;;;1.95;;
10275;SDS011;5183;51.190;6.820;2022-07-18T13:47:17;3.03;;;1.63;;
10275;SDS011;5183;51.190;6.820;2022-07-18T13:49:44;2.72;;;1.75;;
10275;SDS011;5183;51.190;6.820;2022-07-18T13:52:11;4.35;;;2.22;;
10275;SDS011;5183;51.190;6.820;2022-07-18T13:54:39;3.53;;;1.90;;
10275;SDS011;5183;51.190;6.820;2022-07-18T13:57:05;7.38;;;2.28;;
10275;SDS011;5183;51.190;6.820;2022-07-18T13:59:32;3.00;;;1.88;;
10275;SDS011;5183;51.190;6.820;2022-07-18T14:02:00;2.45;;;1.63;;
10275;SDS011;5183;51.190;6.820;2022-07-18T14:04:27;5.03;;;1.90;;
10275;SDS011;5183;51.190;6.820;2022-07-18T14:06:54;2.42;;;1.60;;
10275;SDS011;5183;51.190;6.820;2022-07-18T14:09:21;3.10;;;1.55;;
10275;SDS011;5183;51.190;6.820;2022-07-18T14:11:48;3.80;;;1.90;;
10275;SDS011;5183;51.190;6.820;2022-07-18T14:14:15;3.63;;;1.70;;
10275;SDS011;5183;51.190;6.820;2022-07-18T14:16:42;5.45;;;1.60;;
10275;SDS011;5183;51.190;6.820;2022-07-18T14:19:10;4.70;;;1.73;;
10275;SDS011;5183;51.190;6.820;2022-07-18T14:21:37;3.53;;;1.70;;
10275;SDS011;5183;51.190;6.820;2022-07-18T14:24:04;4.68;;;1.58;;
10275;SDS011;5183;51.190;6.820;2022-07-18T14:26:32;4.00;;;1.50;;
10275;SDS011;5183;51.190;6.820;2022-07-18T14:28:58;4.05;;;1.60;;
10275;SDS011;5183;51.190;6.820;2022-07-18T14:31:25;2.90;;;1.45;;
10275;SDS011;5183;51.190;6.820;2022-07-18T14:33:52;3.67;;;1.60;;
10275;SDS011;5183;51.190;6.820;2022-07-18T14:36:20;4.05;;;1.38;;
10275;SDS011;5183;51.190;6.820;2022-07-18T14:38:47;4.13;;;1.50;;
10275;SDS011;5183;51.190;6.820;2022-07-18T14:41:14;2.50;;;1.58;;
10275;SDS011;5183;51.190;6.820;2022-07-18T14:43:41;2.78;;;1.30;;
10275;SDS011;5183;51.190;6.820;2022-07-18T14:46:08;4.03;;;1.50;;
10275;SDS011;5183;51.190;6.820;2022-07-18T14:48:35;5.15;;;1.55;;
10275;SDS011;5183;51.190;6.820;2022-07-18T14:51:02;4.18;;;1.50;;
10275;SDS011;5183;51.190;6.820;2022-07-18T14:53:30;3.78;;;1.50;;
10275;SDS011;5183;51.190;6.820;2022-07-18T14:55:57;4.45;;;1.60;;
10275;SDS011;5183;51.190;6.820;2022-07-18T14:58:24;4.63;;;1.50;;
10275;SDS011;5183;51.190;6.820;2022-07-18T15:00:50;5.00;;;1.50;;
10275;SDS011;5183;51.190;6.820;2022-07-18T15:03:18;2.53;;;1.50;;
10275;SDS011;5183;51.190;6.820;2022-07-18T15:05:45;7.43;;;1.60;;
10275;SDS011;5183;51.190;6.820;2022-07-18T15:08:12;3.60;;;1.50;;
10275;SDS011;5183;51.190;6.820;2022-07-18T15:10:41;4.10;;;1.60;;
10275;SDS011;5183;51.190;6.820;2022-07-18T15:13:07;5.05;;;1.88;;
10275;SDS011;5183;51.190;6.820;2022-07-18T15:15:34;2.85;;;1.50;;
10275;SDS011;5183;51.190;6.820;2022-07-18T15:18:01;3.65;;;1.65;;
10275;SDS011;5183;51.190;6.820;2022-07-18T15:20:28;5.40;;;1.63;;
10275;SDS011;5183;51.190;6.820;2022-07-18T15:22:55;5.97;;;1.60;;
10275;SDS011;5183;51.190;6.820;2022-07-18T15:25:22;2.17;;;1.30;;
10275;SDS011;5183;51.190;6.820;2022-07-18T15:27:50;4.55;;;1.50;;
10275;SDS011;5183;51.190;6.820;2022-07-18T15:30:17;3.80;;;1.40;;
10275;SDS011;5183;51.190;6.820;2022-07-18T15:32:44;4.63;;;1.85;;
10275;SDS011;5183;51.190;6.820;2022-07-18T15:35:11;4.25;;;1.70;;
10275;SDS011;5183;51.190;6.820;2022-07-18T15:37:38;3.75;;;1.55;;
10275;SDS011;5183;51.190;6.820;2022-07-18T15:40:05;3.33;;;1.27;;
10275;SDS011;5183;51.190;6.820;2022-07-18T15:42:33;4.45;;;1.55;;
10275;SDS011;5183;51.190;6.820;2022-07-18T15:45:01;4.80;;;1.40;;
10275;SDS011;5183;51.190;6.820;2022-07-18T15:47:28;3.25;;;1.70;;
10275;SDS011;5183;51.190;6.820;2022-07-18T15:49:54;3.13;;;2.13;;
10275;SDS011;5183;51.190;6.820;2022-07-18T15:52:21;3.97;;;1.60;;
10275;SDS011;5183;51.190;6.820;2022-07-18T15:54:48;3.53;;;1.75;;
10275;SDS011;5183;51.190;6.820;2022-07-18T15:57:15;4.78;;;1.50;;
10275;SDS011;5183;51.190;6.820;2022-07-18T15:59:42;3.85;;;1.55;;
10275;SDS011;5183;51.190;6.820;2022-07-18T16:02:10;3.85;;;1.35;;